Lampman, Canada
Current Conditions -  °F | °C
As of 2:00 AM on Sunday 23 Nov 2014 (Local Time) from CYEN Reporting Station
Overcast Overcast  
Wind Chill: 26°   Ceiling: 3000
Heat Index: 36°   Visibility: 15mi
Dew Point: 30°   Wind: 16mph
Humidity: 81%   Direction: 270°W
Pressure: 29.25"   Gusts: 23mph
Location:  49.38°N, 102.75°W
Report Text: CYEN 230800Z 27014G20KT 15SM OVC030 02/M01 A2925 RMK SC8SLP929
Loading
Personal Weather Stations






























Interactive Weather Map New forecast layout! Learn more

10-Day Weather Forecast

Advertisements
Track Severe Weather on mobile